createdAt,value
2023-06-17T00:01:18.869Z,13.16
2023-06-17T00:03:45.875Z,13.13
2023-06-17T00:06:12.571Z,13.12
2023-06-17T00:08:39.189Z,13.04
2023-06-17T00:11:05.731Z,13.04
2023-06-17T00:13:33.730Z,13.02
2023-06-17T00:16:00.377Z,13.00
2023-06-17T00:18:27.438Z,12.95
2023-06-17T00:20:54.619Z,12.87
2023-06-17T00:23:22.122Z,12.83
2023-06-17T00:25:49.891Z,12.79
2023-06-17T00:28:16.920Z,12.79
2023-06-17T00:30:46.673Z,12.78
2023-06-17T00:33:13.455Z,12.72
2023-06-17T00:35:39.981Z,12.69
2023-06-17T00:38:06.509Z,12.63
2023-06-17T00:40:33.035Z,12.63
2023-06-17T00:42:59.746Z,12.55
2023-06-17T00:45:26.321Z,12.46
2023-06-17T00:47:53.207Z,12.34
2023-06-17T00:50:20.664Z,12.26
2023-06-17T00:52:53.031Z,12.20
2023-06-17T00:55:19.760Z,12.12
2023-06-17T00:57:48.645Z,12.05
2023-06-17T01:00:16.103Z,12.00
2023-06-17T01:02:45.317Z,12.04
2023-06-17T01:05:14.082Z,12.01
2023-06-17T01:08:04.144Z,12.00
2023-06-17T01:10:39.635Z,12.04
2023-06-17T01:13:06.417Z,12.01
2023-06-17T01:15:37.669Z,11.93
2023-06-17T01:18:06.177Z,11.90
2023-06-17T01:20:33.920Z,11.87
2023-06-17T01:23:02.336Z,11.86
2023-06-17T01:25:32.803Z,11.80
2023-06-17T01:28:01.849Z,11.80
2023-06-17T01:30:29.976Z,11.78
2023-06-17T01:33:01.230Z,11.75
2023-06-17T01:35:37.564Z,11.68
2023-06-17T01:38:16.699Z,11.61
2023-06-17T01:40:45.121Z,11.56
2023-06-17T01:43:16.888Z,11.52
2023-06-17T01:45:44.061Z,11.46
2023-06-17T01:48:10.802Z,11.41
2023-06-17T01:50:37.409Z,11.41
2023-06-17T01:53:03.963Z,11.38
2023-06-17T01:55:30.561Z,11.34
2023-06-17T01:57:57.123Z,11.26
2023-06-17T02:00:23.828Z,11.21
2023-06-17T02:02:50.897Z,11.15
2023-06-17T02:05:17.469Z,11.12
2023-06-17T02:07:43.966Z,11.07
2023-06-17T02:10:10.844Z,11.06
2023-06-17T02:12:37.458Z,11.06
2023-06-17T02:15:04.333Z,11.06
2023-06-17T02:17:31.063Z,11.08
2023-06-17T02:19:57.594Z,11.03
2023-06-17T02:22:24.141Z,11.00
2023-06-17T02:24:50.794Z,10.98
2023-06-17T02:27:17.874Z,10.97
2023-06-17T02:29:45.501Z,11.02
2023-06-17T02:32:12.182Z,11.01
2023-06-17T02:34:38.739Z,10.96
2023-06-17T02:37:05.784Z,10.98
2023-06-17T02:39:32.284Z,10.97
2023-06-17T02:41:58.858Z,11.01
2023-06-17T02:44:25.364Z,10.96
2023-06-17T02:46:52.036Z,10.91
2023-06-17T02:49:19.001Z,10.83
2023-06-17T02:51:45.586Z,10.76
2023-06-17T02:54:12.639Z,10.65
2023-06-17T02:56:39.366Z,10.68
2023-06-17T02:59:08.948Z,10.67
2023-06-17T03:01:40.485Z,10.64
2023-06-17T03:04:07.342Z,10.60
2023-06-17T03:06:35.251Z,10.63
2023-06-17T03:09:04.369Z,10.62
2023-06-17T03:11:30.952Z,10.63
2023-06-17T03:13:57.519Z,10.66
2023-06-17T03:16:27.129Z,10.59
2023-06-17T03:18:53.660Z,10.52
2023-06-17T03:21:20.733Z,10.46
2023-06-17T03:23:49.610Z,10.47
2023-06-17T03:26:17.206Z,10.41
2023-06-17T03:28:43.821Z,10.40
2023-06-17T03:31:11.946Z,10.37
2023-06-17T03:33:38.582Z,10.35
2023-06-17T03:36:05.492Z,10.28
2023-06-17T03:38:31.998Z,10.27
2023-06-17T03:40:58.525Z,10.31
2023-06-17T03:43:25.020Z,10.37
2023-06-17T03:45:51.614Z,10.40
2023-06-17T03:48:18.197Z,10.43
2023-06-17T03:50:44.773Z,10.47
2023-06-17T03:53:11.592Z,10.49
2023-06-17T03:55:38.087Z,10.58
2023-06-17T03:58:04.680Z,10.60
2023-06-17T04:00:31.226Z,10.66
2023-06-17T04:02:57.933Z,10.74
2023-06-17T04:05:32.280Z,10.82
2023-06-17T04:08:00.002Z,10.92
2023-06-17T04:10:27.472Z,10.94
2023-06-17T04:12:54.133Z,10.96
2023-06-17T04:15:20.779Z,10.99
2023-06-17T04:17:47.342Z,11.02
2023-06-17T04:20:13.988Z,11.08
2023-06-17T04:22:41.990Z,11.14
2023-06-17T04:25:11.697Z,11.19
2023-06-17T04:27:39.781Z,11.27
2023-06-17T04:30:10.450Z,11.36
2023-06-17T04:32:40.075Z,11.41
2023-06-17T04:35:07.784Z,11.49
2023-06-17T04:37:35.474Z,11.55
2023-06-17T04:40:02.056Z,11.63
2023-06-17T04:42:29.043Z,11.70
2023-06-17T04:44:55.544Z,11.76
2023-06-17T04:47:22.099Z,11.85
2023-06-17T04:49:49.056Z,11.94
2023-06-17T04:52:15.604Z,12.02
2023-06-17T04:54:42.901Z,12.13
2023-06-17T04:57:09.751Z,12.21
2023-06-17T04:59:36.297Z,12.33
2023-06-17T05:02:03.100Z,12.37
2023-06-17T05:04:29.740Z,12.52
2023-06-17T05:06:56.396Z,12.61
2023-06-17T05:09:23.843Z,12.71
2023-06-17T05:11:50.842Z,12.85
2023-06-17T05:14:17.502Z,12.97
2023-06-17T05:16:44.057Z,13.12
2023-06-17T05:19:10.651Z,13.24
2023-06-17T05:21:37.158Z,13.36
2023-06-17T05:24:04.124Z,13.45
2023-06-17T05:26:30.931Z,13.60
2023-06-17T05:28:58.196Z,13.76
2023-06-17T05:31:24.805Z,13.93
2023-06-17T05:33:51.427Z,14.05
2023-06-17T05:36:17.934Z,14.25
2023-06-17T05:38:44.506Z,14.40
2023-06-17T05:41:11.048Z,14.55
2023-06-17T05:43:37.615Z,14.72
2023-06-17T05:46:04.120Z,14.85
2023-06-17T05:48:30.792Z,15.04
2023-06-17T05:50:57.405Z,15.19
2023-06-17T05:53:23.980Z,15.34
2023-06-17T05:55:50.579Z,15.53
2023-06-17T05:58:17.133Z,15.69
2023-06-17T06:00:43.763Z,15.85
2023-06-17T06:03:10.316Z,16.03
2023-06-17T06:05:37.460Z,16.15
2023-06-17T06:08:04.077Z,16.35
2023-06-17T06:10:30.827Z,16.54
2023-06-17T06:12:57.348Z,16.73
2023-06-17T06:15:24.668Z,16.84
2023-06-17T06:17:51.344Z,17.01
2023-06-17T06:20:17.962Z,17.16
2023-06-17T06:22:44.623Z,17.30
2023-06-17T06:25:11.421Z,17.47
2023-06-17T06:27:37.917Z,17.58
2023-06-17T06:30:04.802Z,17.67
2023-06-17T06:32:31.765Z,17.80
2023-06-17T06:34:58.337Z,17.92
2023-06-17T06:37:24.952Z,18.07
2023-06-17T06:39:51.444Z,18.20
2023-06-17T06:42:18.008Z,18.32
2023-06-17T06:44:44.484Z,18.41
2023-06-17T06:47:11.000Z,18.55
2023-06-17T06:49:37.581Z,18.68
2023-06-17T06:52:04.997Z,18.81
2023-06-17T06:54:31.519Z,18.89
2023-06-17T06:56:58.226Z,19.04
2023-06-17T06:59:24.797Z,19.14
2023-06-17T07:01:51.262Z,19.23
2023-06-17T07:04:17.853Z,19.38
2023-06-17T07:06:44.387Z,19.48
2023-06-17T07:09:11.007Z,19.57
2023-06-17T07:11:37.571Z,19.64
2023-06-17T07:14:04.123Z,19.78
2023-06-17T07:16:30.898Z,19.88
2023-06-17T07:18:57.649Z,19.96
2023-06-17T07:21:24.161Z,20.08
2023-06-17T07:23:51.881Z,20.17
2023-06-17T07:26:18.411Z,20.22
2023-06-17T07:28:44.968Z,20.27
2023-06-17T07:31:11.944Z,20.38
2023-06-17T07:33:38.539Z,20.49
2023-06-17T07:36:05.154Z,20.58
2023-06-17T07:38:34.052Z,20.66
2023-06-17T07:41:01.310Z,20.75
2023-06-17T07:43:27.848Z,20.88
2023-06-17T07:45:54.431Z,20.97
2023-06-17T07:48:21.237Z,21.05
2023-06-17T07:50:47.866Z,21.13
2023-06-17T07:53:14.586Z,21.19
2023-06-17T07:55:41.059Z,21.27
2023-06-17T07:58:07.787Z,21.39
2023-06-17T08:00:34.286Z,21.45
2023-06-17T08:03:01.346Z,21.54
2023-06-17T08:05:28.024Z,21.68
2023-06-17T08:07:54.709Z,21.71
2023-06-17T08:10:21.606Z,21.77
2023-06-17T08:12:49.694Z,21.89
2023-06-17T08:15:16.338Z,21.93
2023-06-17T08:17:43.360Z,22.00
2023-06-17T08:20:11.301Z,22.07
2023-06-17T08:22:38.090Z,22.16
2023-06-17T08:25:04.794Z,22.15
2023-06-17T08:27:32.370Z,22.25
2023-06-17T08:29:59.899Z,22.31
2023-06-17T08:32:26.589Z,22.38
2023-06-17T08:34:53.123Z,22.45
2023-06-17T08:37:19.635Z,22.52
2023-06-17T08:39:46.135Z,22.57
2023-06-17T08:42:12.874Z,22.67
2023-06-17T08:44:44.318Z,22.78
2023-06-17T08:47:16.150Z,22.82
2023-06-17T08:49:45.018Z,22.94
2023-06-17T08:52:14.709Z,23.02
2023-06-17T08:54:41.970Z,23.12
2023-06-17T08:57:13.800Z,23.12
2023-06-17T08:59:43.715Z,23.13
2023-06-17T09:02:11.948Z,23.16
2023-06-17T09:04:38.702Z,23.22
2023-06-17T09:07:05.781Z,23.27
2023-06-17T09:09:32.334Z,23.34
2023-06-17T09:12:03.130Z,23.41
2023-06-17T09:14:29.689Z,23.48
2023-06-17T09:16:56.301Z,23.56
2023-06-17T09:19:23.928Z,23.58
2023-06-17T09:21:50.540Z,23.72
2023-06-17T09:24:17.225Z,23.84
2023-06-17T09:26:45.226Z,23.94
2023-06-17T09:29:13.592Z,23.91
2023-06-17T09:31:59.146Z,23.93
2023-06-17T09:34:27.762Z,24.06
2023-06-17T09:37:01.355Z,24.06
2023-06-17T09:39:33.390Z,24.10
2023-06-17T09:42:10.165Z,24.23
2023-06-17T09:44:40.847Z,24.21
2023-06-17T09:47:09.383Z,24.24
2023-06-17T09:49:37.918Z,24.36
2023-06-17T09:52:10.346Z,24.46
2023-06-17T09:54:37.921Z,24.42
2023-06-17T09:57:08.692Z,24.48
2023-06-17T09:59:35.322Z,24.57
2023-06-17T10:02:01.866Z,24.66
2023-06-17T10:04:28.473Z,24.78
2023-06-17T10:06:55.369Z,24.86
2023-06-17T10:09:22.239Z,24.95
2023-06-17T10:11:52.489Z,24.97
2023-06-17T10:14:24.669Z,24.99
2023-06-17T10:16:52.255Z,25.07
2023-06-17T10:19:23.742Z,25.06
2023-06-17T10:21:53.964Z,25.16
2023-06-17T10:24:21.551Z,25.24
2023-06-17T10:26:52.245Z,25.34
2023-06-17T10:29:18.873Z,25.43
2023-06-17T10:31:45.557Z,25.46
2023-06-17T10:34:16.765Z,25.47
2023-06-17T10:36:43.584Z,25.53
2023-06-17T10:39:14.962Z,25.56
2023-06-17T10:41:41.464Z,25.63
2023-06-17T10:44:29.281Z,25.63
2023-06-17T10:46:57.468Z,25.80
2023-06-17T10:49:24.598Z,25.91
2023-06-17T10:51:58.512Z,25.97
2023-06-17T10:54:30.884Z,25.91
2023-06-17T10:56:58.199Z,26.02
2023-06-17T10:59:26.765Z,26.11
2023-06-17T11:02:01.323Z,26.25
2023-06-17T11:04:29.595Z,26.38
2023-06-17T11:06:56.514Z,26.40
2023-06-17T11:09:30.558Z,26.45
2023-06-17T11:11:58.850Z,26.52
2023-06-17T11:14:28.895Z,26.57
2023-06-17T11:16:55.719Z,26.59
2023-06-17T11:19:23.168Z,26.68
2023-06-17T11:22:04.202Z,26.64
2023-06-17T11:24:34.217Z,26.63
2023-06-17T11:27:01.721Z,26.67
2023-06-17T11:29:30.520Z,26.69
2023-06-17T11:32:01.350Z,26.85
2023-06-17T11:34:33.186Z,26.93
2023-06-17T11:37:01.941Z,27.04
2023-06-17T11:39:30.421Z,27.08
2023-06-17T11:42:04.225Z,27.11
2023-06-17T11:44:35.417Z,27.23
2023-06-17T11:47:10.116Z,27.25
2023-06-17T11:49:42.694Z,27.24
2023-06-17T11:52:13.124Z,27.25
2023-06-17T11:54:47.055Z,27.20
2023-06-17T11:57:26.301Z,27.20
2023-06-17T11:59:58.424Z,27.24
2023-06-17T12:02:27.987Z,27.24
2023-06-17T12:04:54.868Z,27.29
2023-06-17T12:07:21.833Z,27.39
2023-06-17T12:09:54.215Z,27.51
2023-06-17T12:12:28.035Z,27.67
2023-06-17T12:15:00.950Z,27.58
2023-06-17T12:17:44.871Z,27.56
2023-06-17T12:20:21.612Z,27.74
2023-06-17T12:22:50.645Z,27.81
2023-06-17T12:25:17.235Z,27.79
2023-06-17T12:27:44.526Z,27.79
2023-06-17T12:30:12.730Z,27.90
2023-06-17T12:32:41.198Z,28.08
2023-06-17T12:35:10.122Z,27.99
2023-06-17T12:37:39.543Z,28.00
2023-06-17T12:40:07.743Z,28.02
2023-06-17T12:42:34.246Z,27.95
2023-06-17T12:45:01.082Z,28.05
2023-06-17T12:47:27.801Z,28.15
2023-06-17T12:49:54.624Z,28.26
2023-06-17T12:52:21.120Z,28.35
2023-06-17T12:54:57.491Z,28.16
2023-06-17T12:57:24.006Z,28.13
2023-06-17T12:59:50.561Z,28.21
2023-06-17T13:02:17.212Z,28.23
2023-06-17T13:04:43.925Z,28.27
2023-06-17T13:07:11.309Z,28.30
2023-06-17T13:09:37.897Z,28.58
2023-06-17T13:12:05.284Z,28.61
2023-06-17T13:14:31.814Z,28.62
2023-06-17T13:16:58.522Z,28.66
2023-06-17T13:19:25.108Z,28.64
2023-06-17T13:21:51.728Z,28.73
2023-06-17T13:24:18.342Z,28.98
2023-06-17T13:26:44.986Z,28.91
2023-06-17T13:29:11.738Z,28.71
2023-06-17T13:31:38.358Z,28.73
2023-06-17T13:34:05.320Z,28.80
2023-06-17T13:36:32.968Z,28.86
2023-06-17T13:38:59.899Z,28.93
2023-06-17T13:41:31.671Z,29.16
2023-06-17T13:43:58.431Z,29.28
2023-06-17T13:46:25.081Z,29.65
2023-06-17T13:48:51.895Z,29.76
2023-06-17T13:51:19.235Z,29.80
2023-06-17T13:53:45.995Z,29.99
2023-06-17T13:56:12.912Z,29.79
2023-06-17T13:58:39.685Z,29.91
2023-06-17T14:01:06.277Z,30.16
2023-06-17T14:03:32.840Z,30.23
2023-06-17T14:05:59.612Z,30.26
2023-06-17T14:08:26.219Z,30.55
2023-06-17T14:10:52.787Z,30.64
2023-06-17T14:13:19.322Z,30.72
2023-06-17T14:15:45.978Z,30.76
2023-06-17T14:18:12.880Z,30.78
2023-06-17T14:20:40.523Z,30.95
2023-06-17T14:23:08.849Z,31.12
2023-06-17T14:25:36.077Z,31.30
2023-06-17T14:28:02.789Z,31.44
2023-06-17T14:30:29.320Z,31.38
2023-06-17T14:32:55.888Z,31.26
2023-06-17T14:35:22.473Z,31.20
2023-06-17T14:37:50.047Z,31.14
2023-06-17T14:40:17.640Z,31.47
2023-06-17T14:42:44.237Z,31.51
2023-06-17T14:45:12.733Z,31.55
2023-06-17T14:47:40.917Z,31.43
2023-06-17T14:50:09.791Z,31.16
2023-06-17T14:52:36.362Z,31.32
2023-06-17T14:55:04.162Z,31.66
2023-06-17T14:57:33.286Z,31.62
2023-06-17T15:00:00.696Z,31.73
2023-06-17T15:02:45.708Z,31.97
2023-06-17T15:05:12.407Z,31.46
2023-06-17T15:07:39.066Z,31.29
2023-06-17T15:10:06.999Z,31.34
2023-06-17T15:12:33.620Z,31.65
2023-06-17T15:15:00.349Z,31.86
2023-06-17T15:17:27.122Z,32.05
2023-06-17T15:19:53.659Z,32.22
2023-06-17T15:22:20.253Z,32.25
2023-06-17T15:24:46.747Z,32.53
2023-06-17T15:27:13.282Z,32.73
2023-06-17T15:29:40.422Z,32.44
2023-06-17T15:32:07.393Z,31.99
2023-06-17T15:34:33.937Z,31.76
2023-06-17T15:37:00.807Z,31.91
2023-06-17T15:39:32.612Z,31.80
2023-06-17T15:41:59.290Z,31.85
2023-06-17T15:44:26.012Z,32.03
2023-06-17T15:46:52.624Z,31.94
2023-06-17T15:49:20.530Z,31.74
2023-06-17T15:51:47.025Z,31.37
2023-06-17T15:54:13.979Z,30.77
2023-06-17T15:56:40.661Z,30.74
2023-06-17T15:59:07.429Z,30.45
2023-06-17T16:01:34.839Z,29.95
2023-06-17T16:04:40.925Z,29.69
2023-06-17T16:07:09.700Z,29.25
2023-06-17T16:09:38.454Z,29.05
2023-06-17T16:12:06.032Z,28.76
2023-06-17T16:14:33.587Z,28.37
2023-06-17T16:17:01.600Z,28.12
2023-06-17T16:19:28.212Z,27.97
2023-06-17T16:21:55.619Z,27.63
2023-06-17T16:24:23.349Z,27.47
2023-06-17T16:26:50.070Z,27.33
2023-06-17T16:29:16.799Z,27.11
2023-06-17T16:31:43.386Z,26.99
2023-06-17T16:34:09.950Z,26.91
2023-06-17T16:36:36.891Z,26.87
2023-06-17T16:39:04.235Z,26.92
2023-06-17T16:41:30.864Z,26.82
2023-06-17T16:43:57.412Z,26.69
2023-06-17T16:46:24.035Z,26.68
2023-06-17T16:48:50.698Z,26.69
2023-06-17T16:51:17.220Z,26.69
2023-06-17T16:53:43.717Z,26.69
2023-06-17T16:56:10.725Z,26.72
2023-06-17T16:58:37.622Z,26.68
2023-06-17T17:01:04.188Z,26.62
2023-06-17T17:03:30.727Z,26.68
2023-06-17T17:05:57.483Z,26.64
2023-06-17T17:08:25.198Z,26.51
2023-06-17T17:10:51.720Z,26.47
2023-06-17T17:13:18.306Z,26.53
2023-06-17T17:15:44.850Z,26.51
2023-06-17T17:18:11.455Z,26.37
2023-06-17T17:20:37.990Z,26.36
2023-06-17T17:23:04.708Z,26.35
2023-06-17T17:25:31.632Z,26.20
2023-06-17T17:27:58.188Z,26.11
2023-06-17T17:30:24.838Z,26.01
2023-06-17T17:32:51.810Z,26.04
2023-06-17T17:35:18.955Z,25.97
2023-06-17T17:37:45.516Z,25.87
2023-06-17T17:40:12.599Z,25.80
2023-06-17T17:42:39.458Z,25.78
2023-06-17T17:45:06.793Z,25.68
2023-06-17T17:47:33.454Z,25.69
2023-06-17T17:49:59.999Z,25.66
2023-06-17T17:52:26.777Z,25.58
2023-06-17T17:55:01.587Z,25.59
2023-06-17T17:57:29.171Z,25.53
2023-06-17T17:59:55.767Z,25.51
2023-06-17T18:02:22.557Z,25.48
2023-06-17T18:04:49.199Z,25.45
2023-06-17T18:07:15.788Z,25.36
2023-06-17T18:09:42.371Z,25.29
2023-06-17T18:12:09.026Z,25.19
2023-06-17T18:14:36.007Z,25.14
2023-06-17T18:17:03.304Z,25.11
2023-06-17T18:19:29.941Z,25.08
2023-06-17T18:21:56.613Z,25.03
2023-06-17T18:24:23.214Z,25.00
2023-06-17T18:26:49.768Z,24.91
2023-06-17T18:29:16.281Z,24.80
2023-06-17T18:31:42.872Z,24.73
2023-06-17T18:34:09.419Z,24.63
2023-06-17T18:36:35.958Z,24.54
2023-06-17T18:39:02.559Z,24.49
2023-06-17T18:41:29.066Z,24.46
2023-06-17T18:43:55.599Z,24.41
2023-06-17T18:46:22.576Z,24.31
2023-06-17T18:48:50.895Z,24.20
2023-06-17T18:51:17.434Z,24.14
2023-06-17T18:53:44.113Z,24.10
2023-06-17T18:56:11.175Z,24.08
2023-06-17T18:58:37.753Z,24.04
2023-06-17T19:01:04.536Z,23.98
2023-06-17T19:03:31.164Z,23.87
2023-06-17T19:05:57.939Z,23.82
2023-06-17T19:08:24.503Z,23.75
2023-06-17T19:10:51.583Z,23.70
2023-06-17T19:13:18.136Z,23.67
2023-06-17T19:15:44.640Z,23.59
2023-06-17T19:18:11.142Z,23.55
2023-06-17T19:20:37.708Z,23.52
2023-06-17T19:23:04.294Z,23.45
2023-06-17T19:25:30.792Z,23.35
2023-06-17T19:27:57.330Z,23.30
2023-06-17T19:30:24.158Z,23.23
2023-06-17T19:32:51.271Z,23.21
2023-06-17T19:35:17.843Z,23.15
2023-06-17T19:37:44.423Z,23.11
2023-06-17T19:40:11.762Z,23.08
2023-06-17T19:42:38.241Z,23.03
2023-06-17T19:45:05.486Z,22.99
2023-06-17T19:47:32.551Z,22.93
2023-06-17T19:50:00.447Z,22.88
2023-06-17T19:52:27.146Z,22.86
2023-06-17T19:54:54.251Z,22.87
2023-06-17T19:57:20.928Z,22.87
2023-06-17T19:59:47.731Z,22.78
2023-06-17T20:02:15.286Z,22.71
2023-06-17T20:04:41.843Z,22.59
2023-06-17T20:07:08.385Z,22.54
2023-06-17T20:09:34.872Z,22.51
2023-06-17T20:12:01.333Z,22.45
2023-06-17T20:14:28.252Z,22.36
2023-06-17T20:16:54.789Z,22.30
2023-06-17T20:19:21.313Z,22.23
2023-06-17T20:21:47.826Z,22.19
2023-06-17T20:24:14.468Z,22.11
2023-06-17T20:26:41.147Z,22.06
2023-06-17T20:29:07.722Z,22.01
2023-06-17T20:31:34.227Z,22.00
2023-06-17T20:34:00.758Z,21.95
2023-06-17T20:36:27.596Z,21.83
2023-06-17T20:38:54.103Z,21.77
2023-06-17T20:41:20.600Z,21.65
2023-06-17T20:43:47.164Z,21.63
2023-06-17T20:46:13.851Z,21.54
2023-06-17T20:48:40.434Z,21.49
2023-06-17T20:51:09.658Z,21.44
2023-06-17T20:53:36.170Z,21.39
2023-06-17T20:56:02.813Z,21.35
2023-06-17T20:58:29.325Z,21.32
2023-06-17T21:00:56.061Z,21.32
2023-06-17T21:03:22.707Z,21.29
2023-06-17T21:05:49.349Z,21.31
2023-06-17T21:08:16.190Z,21.24
2023-06-17T21:10:42.716Z,21.25
2023-06-17T21:13:09.270Z,21.21
2023-06-17T21:15:36.094Z,21.25
2023-06-17T21:18:02.766Z,21.18
2023-06-17T21:20:29.284Z,21.13
2023-06-17T21:22:56.359Z,21.09
2023-06-17T21:25:23.081Z,21.01
2023-06-17T21:27:49.642Z,20.91
2023-06-17T21:30:16.272Z,20.84
2023-06-17T21:32:42.951Z,20.80
2023-06-17T21:35:09.761Z,20.77
2023-06-17T21:37:36.378Z,20.73
2023-06-17T21:40:02.929Z,20.71
2023-06-17T21:42:29.476Z,20.69
2023-06-17T21:44:56.000Z,20.71
2023-06-17T21:47:22.630Z,20.69
2023-06-17T21:49:49.243Z,20.58
2023-06-17T21:52:15.780Z,20.53
2023-06-17T21:54:42.293Z,20.53
2023-06-17T21:57:09.054Z,20.52
2023-06-17T21:59:36.038Z,20.53
2023-06-17T22:02:02.705Z,20.53
2023-06-17T22:04:29.252Z,20.53
2023-06-17T22:06:56.963Z,20.48
2023-06-17T22:09:23.522Z,20.49
2023-06-17T22:11:50.596Z,20.47
2023-06-17T22:14:17.091Z,20.48
2023-06-17T22:16:43.867Z,20.51
2023-06-17T22:19:10.483Z,20.47
2023-06-17T22:21:37.123Z,20.47
2023-06-17T22:24:03.875Z,20.43
2023-06-17T22:26:30.751Z,20.36
2023-06-17T22:28:57.450Z,20.38
2023-06-17T22:31:23.951Z,20.37
2023-06-17T22:33:50.539Z,20.37
2023-06-17T22:36:17.181Z,20.37
2023-06-17T22:38:43.705Z,20.33
2023-06-17T22:41:10.302Z,20.30
2023-06-17T22:43:36.814Z,20.33
2023-06-17T22:46:04.047Z,20.35
2023-06-17T22:48:30.612Z,20.27
2023-06-17T22:50:57.391Z,20.22
2023-06-17T22:53:23.913Z,20.20
2023-06-17T22:55:50.536Z,20.20
2023-06-17T22:58:17.069Z,20.17
2023-06-17T23:00:43.860Z,20.20
2023-06-17T23:03:10.771Z,20.16
2023-06-17T23:05:37.565Z,20.18
2023-06-17T23:08:07.084Z,20.19
2023-06-17T23:10:33.631Z,20.18
2023-06-17T23:13:00.467Z,20.17
2023-06-17T23:15:27.035Z,20.18
2023-06-17T23:17:53.553Z,20.21
2023-06-17T23:20:20.555Z,20.21
2023-06-17T23:22:47.263Z,20.20
2023-06-17T23:25:16.866Z,20.14
2023-06-17T23:27:44.448Z,20.09
2023-06-17T23:30:12.711Z,20.12
2023-06-17T23:32:39.261Z,20.09
2023-06-17T23:35:06.045Z,20.08
2023-06-17T23:37:32.804Z,20.07
2023-06-17T23:39:59.315Z,20.07
2023-06-17T23:42:25.908Z,20.02
2023-06-17T23:44:53.196Z,20.03
2023-06-17T23:47:19.932Z,20.05
2023-06-17T23:49:46.636Z,20.04
2023-06-17T23:52:13.819Z,20.03
2023-06-17T23:54:41.405Z,20.09
2023-06-17T23:57:08.306Z,20.14
2023-06-17T23:59:34.937Z,20.18
